createdAt,value
2023-05-22T00:10:34.029Z,98824.13
2023-05-22T00:20:59.718Z,98823.01
2023-05-22T00:31:25.536Z,98819.91
2023-05-22T00:41:51.695Z,98815.09
2023-05-22T00:52:18.374Z,98807.41
2023-05-22T01:02:44.412Z,98800.10
2023-05-22T01:13:20.698Z,98791.92
2023-05-22T01:24:36.286Z,98787.75
2023-05-22T01:35:07.411Z,98784.52
2023-05-22T01:45:33.950Z,98785.55
2023-05-22T01:56:07.233Z,98788.70
2023-05-22T02:17:18.873Z,98777.27
2023-05-22T02:27:46.275Z,98773.59
2023-05-22T02:38:10.887Z,98777.09
2023-05-22T02:48:36.870Z,98778.21
2023-05-22T02:59:03.490Z,98774.50
2023-05-22T03:09:29.018Z,98781.33
2023-05-22T03:19:54.646Z,98780.10
2023-05-22T03:30:20.472Z,98782.45
2023-05-22T03:40:46.480Z,98782.59
2023-05-22T03:51:12.103Z,98783.02
2023-05-22T04:01:39.499Z,98784.04
2023-05-22T04:12:05.544Z,98783.64
2023-05-22T04:22:31.394Z,98785.83
2023-05-22T04:32:57.848Z,98783.17
2023-05-22T04:43:26.672Z,98777.92
2023-05-22T04:53:52.600Z,98772.75
2023-05-22T05:04:18.698Z,98770.57
2023-05-22T05:14:44.936Z,98765.17
2023-05-22T05:25:11.899Z,98767.46
2023-05-22T05:35:37.741Z,98774.75
2023-05-22T05:46:03.772Z,98772.40
2023-05-22T05:56:30.134Z,98770.11
2023-05-22T06:06:55.916Z,98762.96
2023-05-22T06:17:21.896Z,98758.56
2023-05-22T06:27:47.853Z,98753.17
2023-05-22T06:38:13.746Z,98747.95
2023-05-22T06:48:39.612Z,98752.37
2023-05-22T06:59:06.346Z,98748.27
2023-05-22T07:09:32.383Z,98741.97
2023-05-22T07:19:58.013Z,98740.98
2023-05-22T07:30:23.990Z,98730.06
2023-05-22T07:40:50.209Z,98727.86
2023-05-22T07:51:16.100Z,98722.59
2023-05-22T08:01:42.791Z,98723.59
2023-05-22T08:12:10.780Z,98727.23
2023-05-22T08:22:38.287Z,98717.89
2023-05-22T08:33:04.298Z,98721.36
2023-05-22T08:43:30.745Z,98722.77
2023-05-22T08:53:58.786Z,98706.61
2023-05-22T09:04:25.927Z,98700.73
2023-05-22T09:14:53.464Z,98693.89
2023-05-22T09:25:22.565Z,98693.86
2023-05-22T09:35:50.505Z,98688.64
2023-05-22T09:46:19.028Z,98694.23
2023-05-22T09:57:08.113Z,98690.86
2023-05-22T10:07:39.776Z,98675.58
2023-05-22T10:18:06.617Z,98676.05
2023-05-22T10:28:39.039Z,98668.51
2023-05-22T10:39:23.559Z,98667.46
2023-05-22T10:49:51.025Z,98656.58
2023-05-22T11:00:19.602Z,98658.42
2023-05-22T11:10:59.359Z,98651.91
2023-05-22T11:21:31.769Z,98641.62
2023-05-22T11:31:58.093Z,98638.58
2023-05-22T11:42:23.738Z,98635.66
2023-05-22T11:52:50.270Z,98639.58
2023-05-22T12:03:17.776Z,98637.13
2023-05-22T12:13:44.088Z,98639.23
2023-05-22T12:24:08.523Z,98628.74
2023-05-22T12:34:37.742Z,98628.04
2023-05-22T12:45:03.635Z,98619.27
2023-05-22T12:55:30.015Z,98611.19
2023-05-22T13:05:55.905Z,98604.29
2023-05-22T13:16:21.791Z,98602.68
2023-05-22T13:26:47.845Z,98592.84
2023-05-22T13:37:14.059Z,98592.42
2023-05-22T13:47:39.914Z,98587.02
2023-05-22T13:58:06.832Z,98579.88
2023-05-22T14:08:32.520Z,98574.81
2023-05-22T14:18:58.540Z,98564.19
2023-05-22T14:29:24.268Z,98554.16
2023-05-22T14:39:49.940Z,98545.63
2023-05-22T14:50:19.539Z,98544.30
2023-05-22T15:00:47.401Z,98537.45
2023-05-22T15:11:13.159Z,98532.14
2023-05-22T15:21:39.265Z,98529.15
2023-05-22T15:32:05.439Z,98517.52
2023-05-22T15:42:30.209Z,98512.84
2023-05-22T15:52:56.346Z,98503.84
2023-05-22T16:03:22.176Z,98498.98
2023-05-22T16:13:48.117Z,98496.54
2023-05-22T16:24:13.878Z,98487.57
2023-05-22T16:34:39.591Z,98487.55
2023-05-22T16:45:06.353Z,98489.55
2023-05-22T16:55:32.328Z,98492.60
2023-05-22T17:05:57.983Z,98504.42
2023-05-22T17:16:23.671Z,98513.20
2023-05-22T17:26:49.808Z,98515.95
2023-05-22T17:37:16.097Z,98518.39
2023-05-22T17:47:41.942Z,98518.36
2023-05-22T17:58:06.583Z,98522.06
2023-05-22T18:08:32.336Z,98511.85
2023-05-22T18:18:58.267Z,98500.42
2023-05-22T18:29:24.375Z,98500.92
2023-05-22T18:39:50.566Z,98502.86
2023-05-22T18:50:16.781Z,98506.14
2023-05-22T19:00:45.303Z,98504.85
2023-05-22T19:11:11.246Z,98513.23
2023-05-22T19:21:37.038Z,98513.68
2023-05-22T19:32:02.633Z,98512.95
2023-05-22T19:42:28.400Z,98510.83
2023-05-22T19:52:54.417Z,98507.11
2023-05-22T20:03:21.210Z,98509.98
2023-05-22T20:13:46.978Z,98506.67
2023-05-22T20:24:19.036Z,98501.77
2023-05-22T20:34:45.564Z,98498.27
2023-05-22T20:45:14.579Z,98495.48
2023-05-22T20:55:41.889Z,98493.62
2023-05-22T21:06:08.128Z,98485.73
2023-05-22T21:16:36.394Z,98490.54
2023-05-22T21:27:04.365Z,98483.10
2023-05-22T21:37:30.031Z,98475.62
2023-05-22T21:47:56.007Z,98474.55
2023-05-22T21:58:21.959Z,98467.23
2023-05-22T22:08:47.648Z,98462.39
2023-05-22T22:19:13.752Z,98460.91
2023-05-22T22:29:41.814Z,98461.42
2023-05-22T22:40:08.371Z,98462.88
2023-05-22T22:50:34.310Z,98457.57
2023-05-22T23:01:00.197Z,98457.40
2023-05-22T23:11:27.339Z,98454.33
2023-05-22T23:21:53.662Z,98446.98
2023-05-22T23:32:19.225Z,98437.56
2023-05-22T23:42:44.751Z,98427.88
2023-05-22T23:53:10.424Z,98422.73
